CheckWX is a tool to help pilots better visualize weather data.  It is not intended as a substitute for an official pre-flight weather briefing.

16:56:04 UTC

KAMA TAF
Rick Husband Amarillo International Airport
Amarillo, Texas, USA
KAMA 141120Z 1412/1512 VRB06KT P6SM SCT150 FM141800 16015KT P6SM FEW250 FM150600 17011KT P6SM SCT250 WS020/24035KT FM150900 20010KT P6SM SCT250 WS020/27050KT

Dec-14@
12:00 UTC

Dec-14 @ 12:00 UTC

Dec-14@
18:00 UTC

Dec-14 @ 18:00 UTC

KAMA 141120Z 1412/1512 VRB06KT P6SM SCT150
Wind
  • Variable at 6 KTS
Cloud Levels
  • Scattered at 15,000' AGL

Dec-14@
18:00 UTC

Dec-14 @ 18:00 UTC

Dec-15@
06:00 UTC

Dec-15 @ 06:00 UTC

FM141800 16015KT P6SM FEW250

From

From Standard forecast or significant change

Wind
  • 160° at 15 KTS
Cloud Levels
  • Few at 25,000' AGL

Dec-15@
06:00 UTC

Dec-15 @ 06:00 UTC

Dec-15@
09:00 UTC

Dec-15 @ 09:00 UTC

FM150600 17011KT P6SM SCT250 WS020/24035KT

From

From Standard forecast or significant change

Wind
  • 170° at 11 KTS
Cloud Levels
  • Scattered at 25,000' AGL

Dec-15@
09:00 UTC

Dec-15 @ 09:00 UTC

Dec-15@
12:00 UTC

Dec-15 @ 12:00 UTC

FM150900 20010KT P6SM SCT250 WS020/27050KT

From

From Standard forecast or significant change

Wind
  • 200° at 10 KTS
Cloud Levels
  • Scattered at 25,000' AGL